Time;durP1;ratioP1;P1;durP2;ratioP2;P2;SDS_P1;SDS_P2;PMS_P1;PMS_P2;Temp;Humidity;BMP_temperature;BMP_pressure;BME280_temperature;BME280_humidity;BME280_pressure;Samples;Min_cycle;Max_cycle;Signal;HPM_P1;HPM_P2
2022/02/23 00:00:42;;;;;;;6.90;3.03;;;10.20;60.30;;;;;;4953020;28;20031;-62
2022/02/23 00:03:08;;;;;;;8.75;2.67;;;10.10;60.50;;;;;;4952225;29;20027;-63
2022/02/23 00:05:34;;;;;;;6.68;2.40;;;10.10;60.60;;;;;;4952885;28;20443;-62
2022/02/23 00:08:00;;;;;;;11.10;2.50;;;10.20;60.50;;;;;;4952023;29;20046;-63
2022/02/23 00:10:25;;;;;;;6.07;2.40;;;10.30;60.50;;;;;;4953111;28;20439;-63
2022/02/23 00:12:51;;;;;;;8.02;2.75;;;10.20;60.70;;;;;;4953716;28;20028;-62
2022/02/23 00:15:17;;;;;;;8.35;2.25;;;10.20;61.10;;;;;;4953700;28;20467;-62
2022/02/23 00:17:43;;;;;;;7.65;2.55;;;10.10;61.40;;;;;;4952288;28;20031;-63
2022/02/23 00:20:09;;;;;;;6.45;2.35;;;10.10;61.60;;;;;;4951696;28;20031;-62
2022/02/23 00:22:35;;;;;;;7.65;2.10;;;10.10;61.90;;;;;;4955517;29;20031;-62
2022/02/23 00:25:02;;;;;;;7.20;2.53;;;10.00;61.80;;;;;;4957429;28;20067;-63
2022/02/23 00:27:27;;;;;;;10.57;2.47;;;10.00;62.10;;;;;;4955442;29;20036;-63
2022/02/23 00:29:53;;;;;;;6.15;1.83;;;10.00;62.10;;;;;;4961738;28;20446;-62
2022/02/23 00:32:20;;;;;;;7.78;2.90;;;10.00;62.00;;;;;;4995817;28;20026;-62
2022/02/23 00:34:47;;;;;;;7.43;2.13;;;10.00;62.00;;;;;;4996040;28;20072;-62
2022/02/23 00:37:13;;;;;;;9.93;2.33;;;10.00;62.00;;;;;;4995796;28;20044;-62
2022/02/23 00:39:39;;;;;;;5.93;1.95;;;10.10;62.10;;;;;;4995173;28;20030;-62
2022/02/23 00:42:05;;;;;;;7.25;2.03;;;10.10;62.20;;;;;;4995450;28;20491;-65
2022/02/23 00:44:30;;;;;;;6.63;2.00;;;10.10;62.40;;;;;;4995250;28;20034;-62
2022/02/23 00:46:57;;;;;;;7.45;2.33;;;10.10;62.30;;;;;;4995451;28;20094;-62
2022/02/23 00:49:23;;;;;;;6.05;2.13;;;10.10;62.40;;;;;;4994817;28;20033;-62
2022/02/23 00:51:48;;;;;;;5.57;1.73;;;10.00;62.60;;;;;;4977964;28;20474;-64
2022/02/23 00:54:16;;;;;;;6.13;2.25;;;10.00;62.80;;;;;;4995384;28;20469;-63
2022/02/23 00:56:42;;;;;;;7.00;1.95;;;10.00;62.80;;;;;;4995053;28;20138;-62
2022/02/23 00:59:07;;;;;;;5.78;1.70;;;10.00;62.90;;;;;;4995179;28;20027;-63
2022/02/23 01:01:33;;;;;;;5.40;1.88;;;9.90;62.90;;;;;;4994977;28;20027;-62
2022/02/23 01:03:59;;;;;;;5.93;1.85;;;9.90;62.90;;;;;;4995062;28;20031;-62
2022/02/23 01:06:25;;;;;;;3.75;1.60;;;9.90;63.10;;;;;;4994383;28;20027;-63
2022/02/23 01:08:50;;;;;;;4.53;1.90;;;9.90;63.00;;;;;;4995147;28;20042;-63
2022/02/23 01:11:19;;;;;;;5.15;1.70;;;9.90;63.30;;;;;;4995160;28;20031;-63
2022/02/23 01:13:49;;;;;;;6.28;1.90;;;9.90;63.30;;;;;;4994940;28;20030;-62
2022/02/23 01:16:15;;;;;;;5.07;1.48;;;9.90;63.40;;;;;;4978310;28;20039;-65
2022/02/23 01:18:42;;;;;;;4.68;1.70;;;9.90;63.50;;;;;;4994719;28;20058;-62
2022/02/23 01:21:09;;;;;;;5.13;1.70;;;9.90;63.30;;;;;;4977750;28;20026;-63
2022/02/23 01:23:34;;;;;;;4.78;1.48;;;10.00;63.20;;;;;;4994090;28;20026;-63
2022/02/23 01:26:01;;;;;;;4.15;1.50;;;10.00;63.30;;;;;;4994775;28;20112;-63
2022/02/23 01:28:27;;;;;;;4.72;1.60;;;10.00;63.70;;;;;;4994452;28;20030;-63
2022/02/23 01:30:52;;;;;;;3.95;1.80;;;10.00;63.60;;;;;;4976981;28;20054;-63
2022/02/23 01:33:18;;;;;;;5.47;1.52;;;10.00;63.20;;;;;;4993738;28;20125;-63
2022/02/23 01:35:44;;;;;;;5.53;1.73;;;10.00;63.10;;;;;;4994235;28;20224;-63
2022/02/23 01:38:10;;;;;;;6.40;1.60;;;10.00;63.00;;;;;;4994838;28;20026;-63
2022/02/23 01:40:36;;;;;;;5.38;1.77;;;10.00;63.00;;;;;;4976879;28;20444;-62
2022/02/23 01:43:02;;;;;;;4.65;1.60;;;10.00;63.00;;;;;;4994605;28;20031;-63
2022/02/23 01:45:27;;;;;;;5.40;1.95;;;10.00;63.00;;;;;;4994147;28;20542;-62
2022/02/23 01:47:53;;;;;;;3.63;1.48;;;10.10;62.90;;;;;;4994313;28;20070;-62
2022/02/23 01:50:20;;;;;;;5.43;1.60;;;10.10;62.90;;;;;;4994630;28;20069;-62
2022/02/23 01:52:46;;;;;;;6.38;1.63;;;10.00;63.00;;;;;;4976382;28;20236;-64
2022/02/23 01:55:12;;;;;;;6.45;1.55;;;10.00;63.20;;;;;;4994051;28;20053;-62
2022/02/23 01:57:38;;;;;;;3.38;1.70;;;10.00;63.20;;;;;;4993679;28;20036;-62
2022/02/23 02:00:10;;;;;;;5.25;2.05;;;10.00;63.40;;;;;;4976892;28;20053;-63
2022/02/23 02:02:36;;;;;;;6.10;1.80;;;10.00;63.30;;;;;;4976375;28;20030;-63
2022/02/23 02:05:04;;;;;;;3.38;1.40;;;10.00;63.40;;;;;;4976751;28;20432;-63
2022/02/23 02:07:30;;;;;;;5.82;2.00;;;10.00;63.70;;;;;;4976263;28;20141;-63
2022/02/23 02:09:55;;;;;;;6.57;1.55;;;10.10;63.00;;;;;;4993882;28;20027;-63
2022/02/23 02:12:21;;;;;;;5.07;1.58;;;10.10;62.90;;;;;;4994293;28;20026;-63
2022/02/23 02:14:47;;;;;;;4.57;1.50;;;10.10;62.80;;;;;;4976202;28;20165;-62
2022/02/23 02:17:13;;;;;;;4.30;1.73;;;10.10;63.00;;;;;;4994128;28;20058;-63
2022/02/23 02:19:39;;;;;;;6.43;1.75;;;10.20;63.60;;;;;;4993299;28;20050;-62
2022/02/23 02:22:06;;;;;;;7.60;2.63;;;10.10;64.10;;;;;;4993686;28;20100;-62
2022/02/23 02:24:42;;;;;;;3.97;1.50;;;10.10;64.70;;;;;;4975682;28;20101;-62
2022/02/23 02:27:10;;;;;;;7.40;1.65;;;10.10;65.60;;;;;;4993607;28;20038;-64
2022/02/23 02:29:37;;;;;;;7.15;1.75;;;10.10;66.90;;;;;;4975519;28;20030;-63
2022/02/23 02:32:03;;;;;;;5.38;1.90;;;10.10;66.70;;;;;;4993644;28;20042;-62
2022/02/23 02:34:29;;;;;;;5.97;2.15;;;10.00;67.20;;;;;;4991883;28;20035;-69
2022/02/23 02:36:55;;;;;;;4.13;1.65;;;10.00;66.60;;;;;;4976221;28;20389;-62
2022/02/23 02:39:22;;;;;;;6.35;1.83;;;10.10;66.50;;;;;;4993293;28;20030;-62
2022/02/23 02:41:48;;;;;;;4.22;1.58;;;10.10;66.00;;;;;;4993301;28;20035;-62
2022/02/23 02:44:14;;;;;;;3.92;1.70;;;10.10;65.80;;;;;;4993456;28;20377;-63
2022/02/23 02:46:40;;;;;;;6.05;1.70;;;10.10;66.00;;;;;;4992703;28;20053;-63
2022/02/23 02:49:07;;;;;;;8.13;2.08;;;10.10;65.70;;;;;;4976139;28;20033;-63
2022/02/23 02:51:33;;;;;;;6.55;1.75;;;10.10;65.60;;;;;;4992757;28;20030;-63
2022/02/23 02:53:59;;;;;;;4.85;1.40;;;10.10;66.40;;;;;;4993452;28;20026;-62
2022/02/23 02:56:25;;;;;;;5.85;1.80;;;10.20;66.70;;;;;;4993135;28;20030;-63
2022/02/23 02:58:54;;;;;;;5.15;1.85;;;10.10;66.00;;;;;;4974952;28;20026;-62
2022/02/23 03:01:25;;;;;;;6.05;1.40;;;10.20;65.60;;;;;;4993018;28;20117;-62
2022/02/23 03:03:51;;;;;;;4.20;1.17;;;10.20;64.80;;;;;;4992397;28;20597;-62
2022/02/23 03:06:17;;;;;;;5.97;1.70;;;10.20;64.80;;;;;;4992880;28;20410;-63
2022/02/23 03:08:44;;;;;;;3.25;1.20;;;10.20;64.80;;;;;;4992397;28;20385;-63
2022/02/23 03:11:10;;;;;;;3.53;1.33;;;10.20;65.50;;;;;;4993077;28;20050;-63
2022/02/23 03:13:37;;;;;;;5.05;1.35;;;10.20;66.40;;;;;;4975143;28;20121;-63
2022/02/23 03:16:03;;;;;;;7.30;1.98;;;10.20;67.00;;;;;;4975589;28;20030;-63
2022/02/23 03:18:29;;;;;;;4.50;1.58;;;10.20;68.30;;;;;;4992887;28;20030;-63
2022/02/23 03:20:55;;;;;;;5.63;1.70;;;10.10;69.10;;;;;;4992254;28;20080;-63
2022/02/23 03:23:21;;;;;;;4.88;1.50;;;10.00;72.00;;;;;;4992652;28;20031;-63
2022/02/23 03:25:46;;;;;;;6.13;1.30;;;9.90;70.90;;;;;;4992642;28;20030;-62
2022/02/23 03:28:12;;;;;;;5.95;1.17;;;10.00;69.10;;;;;;4992503;28;20046;-62
2022/02/23 03:30:41;;;;;;;2.95;1.20;;;10.00;68.30;;;;;;4991990;28;20100;-62
2022/02/23 03:33:09;;;;;;;2.58;0.93;;;10.00;68.10;;;;;;4992684;28;20026;-62
2022/02/23 03:35:38;;;;;;;2.30;1.20;;;10.00;67.10;;;;;;4974439;28;20036;-64
2022/02/23 03:38:05;;;;;;;3.40;1.33;;;10.00;67.00;;;;;;4992651;28;20112;-62
2022/02/23 03:40:31;;;;;;;3.35;1.40;;;10.10;66.80;;;;;;4992378;28;20109;-63
2022/02/23 03:42:57;;;;;;;5.40;1.35;;;10.10;66.40;;;;;;4991863;28;20041;-62
2022/02/23 03:45:41;;;;;;;7.47;1.50;;;10.20;66.20;;;;;;4975011;28;20019;-62
2022/02/23 03:48:07;;;;;;;6.50;1.80;;;10.20;66.00;;;;;;4974946;28;20061;-63
2022/02/23 03:50:33;;;;;;;4.45;1.73;;;10.20;65.90;;;;;;4992548;28;20474;-63
2022/02/23 03:52:59;;;;;;;2.83;1.20;;;10.30;65.80;;;;;;4991898;28;20022;-62
2022/02/23 03:55:25;;;;;;;3.83;1.48;;;10.30;65.80;;;;;;4991594;28;20029;-62
2022/02/23 03:57:51;;;;;;;3.92;1.17;;;10.10;66.00;;;;;;4974352;28;20473;-63
2022/02/23 04:00:17;;;;;;;3.95;1.42;;;10.20;66.00;;;;;;4974704;28;20037;-63
2022/02/23 04:02:44;;;;;;;3.45;1.30;;;10.20;65.90;;;;;;4974162;28;20030;-63
2022/02/23 04:05:11;;;;;;;2.17;1.17;;;10.20;66.50;;;;;;4974521;28;20084;-63
2022/02/23 04:07:39;;;;;;;4.70;1.67;;;10.10;66.10;;;;;;4991433;28;20080;-62
2022/02/23 04:10:06;;;;;;;2.83;1.30;;;10.10;66.50;;;;;;4974396;28;20030;-62
2022/02/23 04:12:31;;;;;;;4.57;1.67;;;10.10;67.00;;;;;;4991950;28;20034;-62
2022/02/23 04:14:57;;;;;;;4.28;1.50;;;10.00;68.70;;;;;;4974034;28;20130;-62
2022/02/23 04:17:23;;;;;;;4.88;1.50;;;9.90;70.40;;;;;;4974654;28;20485;-63
2022/02/23 04:19:49;;;;;;;3.58;1.42;;;9.90;71.40;;;;;;4974145;28;20367;-63
2022/02/23 04:22:15;;;;;;;2.28;1.15;;;9.90;71.90;;;;;;4992214;28;20065;-63
2022/02/23 04:24:40;;;;;;;3.72;1.40;;;9.90;71.60;;;;;;4991466;28;20034;-63
2022/02/23 04:27:06;;;;;;;3.80;1.38;;;9.90;72.20;;;;;;4973798;28;20110;-63
2022/02/23 04:29:32;;;;;;;3.97;1.60;;;9.90;73.30;;;;;;4991881;28;20346;-62
2022/02/23 04:31:58;;;;;;;4.15;1.88;;;9.90;72.60;;;;;;4973481;28;20050;-62
2022/02/23 04:34:25;;;;;;;6.32;1.65;;;9.90;72.00;;;;;;4991534;28;20058;-63
2022/02/23 04:36:51;;;;;;;4.40;1.30;;;9.90;71.20;;;;;;4973813;28;20048;-63
2022/02/23 04:39:17;;;;;;;2.00;1.10;;;10.00;71.00;;;;;;4974288;28;20041;-62
2022/02/23 04:41:42;;;;;;;4.25;1.48;;;10.00;70.50;;;;;;4958053;28;20030;-61
2022/02/23 04:44:09;;;;;;;2.70;1.20;;;10.00;70.00;;;;;;4973924;28;20354;-62
2022/02/23 04:46:35;;;;;;;3.17;1.33;;;10.10;69.90;;;;;;4991655;28;20043;-62
2022/02/23 04:49:01;;;;;;;3.30;1.40;;;10.10;69.80;;;;;;4991027;28;20037;-62
2022/02/23 04:51:29;;;;;;;2.78;1.23;;;10.00;69.60;;;;;;4991370;28;20054;-62
2022/02/23 04:53:57;;;;;;;3.53;1.45;;;10.10;69.40;;;;;;4973648;28;20031;-63
2022/02/23 04:56:23;;;;;;;5.03;1.20;;;10.10;69.40;;;;;;4991519;28;20041;-63
2022/02/23 04:58:49;;;;;;;3.45;1.27;;;10.10;69.00;;;;;;4973808;28;20068;-62
2022/02/23 05:01:15;;;;;;;4.43;1.38;;;10.20;69.00;;;;;;4973531;28;20473;-62
2022/02/23 05:03:41;;;;;;;3.22;1.27;;;10.20;68.90;;;;;;4973415;28;20031;-62
2022/02/23 05:06:25;;;;;;;3.63;1.27;;;10.10;68.80;;;;;;4991103;28;20080;-64
2022/02/23 05:08:51;;;;;;;4.82;1.45;;;10.10;68.70;;;;;;4993272;28;20056;-63
2022/02/23 05:11:17;;;;;;;2.95;1.38;;;10.20;68.60;;;;;;4995005;28;20337;-63
2022/02/23 05:13:42;;;;;;;3.90;1.40;;;10.20;68.40;;;;;;4994674;28;20038;-61
2022/02/23 05:16:08;;;;;;;5.43;1.50;;;10.30;68.20;;;;;;4977430;28;20026;-64
2022/02/23 05:18:34;;;;;;;4.20;1.42;;;10.30;68.30;;;;;;4977679;28;20022;-63
2022/02/23 05:21:00;;;;;;;2.92;1.30;;;10.30;68.20;;;;;;4994328;28;20026;-63
2022/02/23 05:23:27;;;;;;;5.45;1.48;;;10.20;68.40;;;;;;4995052;28;20105;-62
2022/02/23 05:25:53;;;;;;;3.90;1.17;;;10.20;68.20;;;;;;4994474;28;20030;-63
2022/02/23 05:28:19;;;;;;;2.75;1.30;;;10.30;68.20;;;;;;4977607;28;20064;-63
2022/02/23 05:30:46;;;;;;;4.15;1.40;;;10.20;68.20;;;;;;4993814;28;20054;-63
2022/02/23 05:33:12;;;;;;;4.55;1.10;;;10.30;68.40;;;;;;4977222;28;20030;-63
2022/02/23 05:35:39;;;;;;;4.45;1.50;;;10.20;68.10;;;;;;4994539;28;20528;-63
2022/02/23 05:38:05;;;;;;;2.88;1.45;;;10.20;68.20;;;;;;4976665;28;20081;-63
2022/02/23 05:40:31;;;;;;;3.08;1.35;;;10.20;68.10;;;;;;4994685;28;20038;-63
2022/02/23 05:42:57;;;;;;;2.50;1.48;;;10.20;68.20;;;;;;4993812;28;20031;-61
2022/02/23 05:45:23;;;;;;;3.05;1.50;;;10.20;68.20;;;;;;4976993;28;20028;-62
2022/02/23 05:47:49;;;;;;;2.65;1.48;;;10.20;68.30;;;;;;4993906;28;20049;-63
2022/02/23 05:50:15;;;;;;;4.38;1.23;;;10.30;68.10;;;;;;4994554;28;20022;-62
2022/02/23 05:52:41;;;;;;;3.10;1.50;;;10.30;68.20;;;;;;4993904;28;20033;-62
2022/02/23 05:55:08;;;;;;;2.42;1.40;;;10.30;67.90;;;;;;4976041;28;20053;-63
2022/02/23 05:57:34;;;;;;;3.65;1.42;;;10.40;67.70;;;;;;4994181;28;20039;-64
2022/02/23 06:00:00;;;;;;;4.10;2.00;;;10.50;67.40;;;;;;4992399;28;20054;-62
2022/02/23 06:02:26;;;;;;;4.35;1.50;;;10.60;67.20;;;;;;4976652;28;20473;-69
2022/02/23 06:04:52;;;;;;;5.43;1.70;;;10.50;66.80;;;;;;4975892;28;20034;-61
2022/02/23 06:07:18;;;;;;;4.03;1.70;;;10.50;66.80;;;;;;4993681;28;20077;-63
2022/02/23 06:09:44;;;;;;;4.65;1.58;;;10.60;66.50;;;;;;4993518;28;20026;-66
2022/02/23 06:12:10;;;;;;;3.00;1.60;;;10.70;66.30;;;;;;4994002;28;20102;-61
2022/02/23 06:14:36;;;;;;;7.22;2.25;;;10.70;66.10;;;;;;4993710;28;20427;-62
2022/02/23 06:17:02;;;;;;;4.65;1.83;;;10.70;66.00;;;;;;4993102;28;20069;-62
2022/02/23 06:19:27;;;;;;;5.60;1.30;;;10.70;65.90;;;;;;4976158;28;20030;-62
2022/02/23 06:21:53;;;;;;;3.58;1.60;;;10.70;65.50;;;;;;4993496;28;20033;-62
2022/02/23 06:24:19;;;;;;;3.58;1.60;;;10.80;65.50;;;;;;4994387;28;20425;-61
2022/02/23 06:26:46;;;;;;;1.92;1.30;;;10.70;65.30;;;;;;4975967;28;20044;-68
2022/02/23 06:29:12;;;;;;;6.78;1.48;;;10.80;65.30;;;;;;4993754;28;20110;-62
2022/02/23 06:31:38;;;;;;;3.45;1.58;;;10.80;65.30;;;;;;4993293;28;20496;-62
2022/02/23 06:34:03;;;;;;;5.82;1.90;;;10.90;65.00;;;;;;4992504;28;20026;-62
2022/02/23 06:36:29;;;;;;;5.78;1.63;;;10.80;65.30;;;;;;4993215;28;20072;-62
2022/02/23 06:38:57;;;;;;;5.72;1.70;;;10.90;65.40;;;;;;4992401;28;20035;-61
2022/02/23 06:41:24;;;;;;;4.00;1.85;;;10.90;65.40;;;;;;4993372;28;20030;-61
2022/02/23 06:43:52;;;;;;;5.30;1.85;;;10.90;65.60;;;;;;4992721;28;20031;-60
2022/02/23 06:46:18;;;;;;;4.85;1.80;;;10.90;65.60;;;;;;4991728;28;20042;-60
2022/02/23 06:48:44;;;;;;;6.47;1.67;;;10.90;65.50;;;;;;4993327;28;20027;-60
2022/02/23 06:51:16;;;;;;;3.53;1.80;;;10.90;65.70;;;;;;4992431;28;20031;-60
2022/02/23 06:53:42;;;;;;;3.42;1.52;;;10.90;65.60;;;;;;4993038;28;20030;-59
2022/02/23 06:56:08;;;;;;;5.63;2.50;;;10.90;66.00;;;;;;4992233;28;20265;-60
2022/02/23 06:58:44;;;;;;;9.32;3.38;;;10.90;66.30;;;;;;4992538;28;20022;-60
2022/02/23 07:01:10;;;;;;;18.58;4.50;;;11.00;66.20;;;;;;4992237;28;20026;-61
2022/02/23 07:03:36;;;;;;;12.63;2.88;;;10.90;66.60;;;;;;4993041;28;20023;-61
2022/02/23 07:06:02;;;;;;;5.00;1.70;;;10.70;66.70;;;;;;4991976;28;20462;-60
2022/02/23 07:08:27;;;;;;;4.47;1.65;;;10.70;65.40;;;;;;4992303;28;20031;-61
2022/02/23 07:10:53;;;;;;;7.57;1.90;;;10.70;65.40;;;;;;4992308;28;20032;-62
2022/02/23 07:13:20;;;;;;;9.25;2.05;;;10.90;65.20;;;;;;4992442;28;20080;-60
2022/02/23 07:15:46;;;;;;;12.65;2.42;;;11.00;63.90;;;;;;4992559;28;20026;-61
2022/02/23 07:18:12;;;;;;;6.53;1.80;;;11.00;64.20;;;;;;4992389;28;20469;-61
2022/02/23 07:20:38;;;;;;;6.50;1.75;;;11.20;63.70;;;;;;4992639;28;20112;-61
2022/02/23 07:23:04;;;;;;;8.45;3.38;;;11.10;63.20;;;;;;4992065;28;20030;-62
2022/02/23 07:25:30;;;;;;;3.47;0.98;;;11.00;63.20;;;;;;4992893;28;20060;-63
2022/02/23 07:27:56;;;;;;;5.47;2.05;;;10.90;64.60;;;;;;4991683;28;20042;-62
2022/02/23 07:30:21;;;;;;;4.90;1.35;;;10.60;65.80;;;;;;4958406;28;20081;-60
2022/02/23 07:32:49;;;;;;;3.92;1.63;;;10.40;65.40;;;;;;4992554;28;20050;-61
2022/02/23 07:35:15;;;;;;;8.43;2.45;;;10.40;65.20;;;;;;4974136;28;20030;-61
2022/02/23 07:37:42;;;;;;;6.25;1.70;;;10.50;64.60;;;;;;4992419;28;20034;-60
2022/02/23 07:40:14;;;;;;;5.45;1.63;;;10.60;64.00;;;;;;4991576;28;20105;-61
2022/02/23 07:42:41;;;;;;;5.05;1.58;;;10.60;62.40;;;;;;4974573;28;20030;-60
2022/02/23 07:45:08;;;;;;;5.43;1.83;;;10.70;61.90;;;;;;4991875;28;20030;-61
2022/02/23 07:47:34;;;;;;;5.13;4.63;;;11.40;61.50;;;;;;4992117;28;20035;-61
2022/02/23 07:49:59;;;;;;;6.75;4.10;;;14.30;57.80;;;;;;4991890;28;20026;-60
2022/02/23 07:52:25;;;;;;;5.78;3.67;;;18.10;49.80;;;;;;4973084;28;20538;-65
2022/02/23 07:54:52;;;;;;;4.85;3.90;;;21.10;41.80;;;;;;4991156;28;20100;-61
2022/02/23 07:57:18;;;;;;;4.25;3.55;;;22.60;38.30;;;;;;4991372;28;20026;-62
2022/02/23 07:59:44;;;;;;;6.75;3.22;;;23.70;35.80;;;;;;4974436;28;20125;-61
2022/02/23 08:02:09;;;;;;;6.30;3.40;;;24.70;33.00;;;;;;4990901;28;20022;-63
2022/02/23 08:04:35;;;;;;;8.63;3.13;;;25.20;31.10;;;;;;4973721;28;20044;-64
2022/02/23 08:07:02;;;;;;;6.30;3.17;;;25.50;30.10;;;;;;4972175;28;20053;-62
2022/02/23 08:09:28;;;;;;;5.15;3.05;;;26.30;30.20;;;;;;4990732;28;20205;-62
2022/02/23 08:11:54;;;;;;;7.90;3.45;;;26.80;29.00;;;;;;4973858;28;20124;-67
2022/02/23 08:14:20;;;;;;;4.57;3.20;;;27.10;28.70;;;;;;4991707;28;20032;-61
2022/02/23 08:19:44;;;;;;;5.97;3.60;;;26.40;28.40;;;;;;4969291;28;20046;-61
2022/02/23 08:22:14;;;;;;;7.13;3.45;;;26.60;28.30;;;;;;4991215;28;20470;-62
2022/02/23 08:24:46;;;;;;;7.22;3.47;;;26.30;27.90;;;;;;4974529;28;20031;-62
2022/02/23 08:27:14;;;;;;;5.82;2.72;;;24.60;27.90;;;;;;4973542;28;20074;-61
2022/02/23 08:29:41;;;;;;;8.93;1.92;;;22.80;30.80;;;;;;4974168;28;20026;-61
2022/02/23 08:32:26;;;;;;;3.88;1.48;;;21.40;31.70;;;;;;4973237;28;20078;-61
2022/02/23 08:34:53;;;;;;;5.97;1.80;;;19.80;33.00;;;;;;4991760;28;20046;-61
2022/02/23 08:37:19;;;;;;;10.93;2.10;;;18.40;35.70;;;;;;4990972;28;20470;-60
2022/02/23 08:39:48;;;;;;;6.30;1.90;;;17.80;36.40;;;;;;4991620;28;20045;-62
2022/02/23 08:42:15;;;;;;;10.98;1.98;;;17.30;37.10;;;;;;4993113;28;20019;-59
2022/02/23 08:44:42;;;;;;;7.45;2.03;;;16.80;37.50;;;;;;4995556;28;20054;-61
2022/02/23 08:47:09;;;;;;;15.65;2.60;;;16.00;38.20;;;;;;4995099;28;20165;-61
2022/02/23 08:49:35;;;;;;;10.55;1.98;;;15.60;38.60;;;;;;4995622;28;20101;-61
2022/02/23 08:52:01;;;;;;;9.65;2.42;;;15.30;39.70;;;;;;4977836;28;20037;-65
2022/02/23 08:54:28;;;;;;;17.98;2.70;;;15.00;39.80;;;;;;4995703;28;20029;-62
2022/02/23 08:56:54;;;;;;;7.55;1.85;;;14.60;40.80;;;;;;4995592;28;20034;-61
2022/02/23 08:59:20;;;;;;;11.35;2.40;;;14.50;41.00;;;;;;4994840;28;20428;-61
2022/02/23 09:01:46;;;;;;;8.95;2.38;;;14.20;41.60;;;;;;4994339;28;20362;-61
2022/02/23 09:04:12;;;;;;;16.40;3.15;;;14.10;41.70;;;;;;4995214;28;20464;-60
2022/02/23 09:06:41;;;;;;;14.95;2.90;;;13.90;42.10;;;;;;4996055;28;20442;-60
2022/02/23 09:09:11;;;;;;;10.70;2.25;;;13.90;42.80;;;;;;4995125;28;20040;-61
2022/02/23 09:11:37;;;;;;;7.82;2.08;;;13.90;41.90;;;;;;4995411;28;20026;-61
2022/02/23 09:16:47;;;;;;;10.10;1.98;;;13.30;42.30;;;;;;4995167;28;20057;-60
2022/02/23 09:19:13;;;;;;;10.65;2.35;;;13.20;41.50;;;;;;4994353;28;20442;-61
2022/02/23 09:21:48;;;;;;;6.10;1.98;;;13.20;42.20;;;;;;4977863;28;20492;-61
2022/02/23 09:24:14;;;;;;;11.05;2.97;;;13.20;42.00;;;;;;4993290;28;20061;-62
2022/02/23 09:26:41;;;;;;;11.43;2.45;;;13.30;42.40;;;;;;4995469;28;20035;-61
2022/02/23 09:29:07;;;;;;;8.43;2.20;;;13.50;41.90;;;;;;4975964;28;20073;-62
2022/02/23 09:31:36;;;;;;;9.02;2.58;;;13.50;41.40;;;;;;4961956;28;20471;-63
2022/02/23 09:34:01;;;;;;;10.95;2.55;;;13.50;41.80;;;;;;4955249;28;20035;-61
2022/02/23 09:36:27;;;;;;;8.65;2.33;;;13.40;41.00;;;;;;4954491;29;20035;-61
2022/02/23 09:38:53;;;;;;;16.58;2.70;;;13.10;41.40;;;;;;4955982;28;20031;-60
2022/02/23 09:41:21;;;;;;;7.88;2.47;;;12.80;42.00;;;;;;4955329;28;20035;-62
2022/02/23 09:43:48;;;;;;;6.63;1.98;;;12.90;41.90;;;;;;4953872;29;20031;-60
2022/02/23 09:46:21;;;;;;;14.63;2.80;;;13.10;41.60;;;;;;4957050;28;20032;-61
2022/02/23 09:48:52;;;;;;;9.98;2.20;;;13.10;41.60;;;;;;4956135;29;20482;-61
2022/02/23 09:51:18;;;;;;;22.60;3.70;;;13.10;41.50;;;;;;4954412;29;20435;-61
2022/02/23 09:53:47;;;;;;;14.27;2.67;;;13.10;41.40;;;;;;4955206;28;20238;-61
2022/02/23 09:56:15;;;;;;;17.95;4.00;;;13.20;41.90;;;;;;4955393;28;20028;-59
2022/02/23 09:58:41;;;;;;;10.63;2.45;;;13.30;41.60;;;;;;4955842;28;20117;-62
2022/02/23 10:01:08;;;;;;;8.45;2.22;;;13.40;41.10;;;;;;4954015;29;20162;-61
2022/02/23 10:03:34;;;;;;;12.68;2.75;;;13.50;41.30;;;;;;4955857;28;20143;-60
2022/02/23 10:06:00;;;;;;;19.17;2.63;;;13.30;40.70;;;;;;4955706;28;20024;-61
2022/02/23 10:08:32;;;;;;;9.95;2.22;;;13.20;41.20;;;;;;4952786;29;20032;-62
2022/02/23 10:10:59;;;;;;;7.25;2.13;;;13.30;41.40;;;;;;4955467;28;20106;-61
2022/02/23 10:13:26;;;;;;;12.55;3.08;;;13.50;41.50;;;;;;4953792;29;20031;-61
2022/02/23 10:15:52;;;;;;;12.75;2.90;;;13.10;41.50;;;;;;4955729;28;20039;-60
2022/02/23 10:18:20;;;;;;;8.48;2.50;;;13.10;41.60;;;;;;4954597;28;20031;-63
2022/02/23 10:20:48;;;;;;;12.25;3.90;;;13.00;41.60;;;;;;4955557;28;20035;-62
2022/02/23 10:23:23;;;;;;;14.20;2.80;;;13.20;42.70;;;;;;4952852;29;20023;-64
2022/02/23 10:25:54;;;;;;;13.95;2.60;;;13.40;41.80;;;;;;4966967;28;20110;-59
2022/02/23 10:28:26;;;;;;;7.18;2.30;;;13.40;40.10;;;;;;4952242;28;20062;-62
2022/02/23 10:31:07;;;;;;;10.82;2.50;;;13.30;40.50;;;;;;4952920;28;20051;-61
2022/02/23 10:33:38;;;;;;;11.35;2.90;;;13.30;41.30;;;;;;4953133;29;20046;-63
2022/02/23 10:36:05;;;;;;;7.88;2.40;;;13.50;41.00;;;;;;4947976;29;20267;-63
2022/02/23 10:38:39;;;;;;;9.90;2.40;;;13.60;41.00;;;;;;4951232;28;20059;-64
2022/02/23 10:41:07;;;;;;;6.90;2.30;;;13.60;40.60;;;;;;4949587;28;20090;-60
2022/02/23 10:43:37;;;;;;;16.13;3.58;;;13.60;40.70;;;;;;4948841;29;20023;-65
2022/02/23 10:46:17;;;;;;;12.13;2.47;;;13.70;40.80;;;;;;4950003;29;20124;-68
2022/02/23 10:48:45;;;;;;;9.23;2.58;;;13.60;40.00;;;;;;4952936;29;20115;-61
2022/02/23 10:51:17;;;;;;;9.80;2.40;;;13.60;40.60;;;;;;4952951;28;20027;-62
2022/02/23 10:53:43;;;;;;;9.38;2.55;;;13.60;40.60;;;;;;4951060;28;20106;-61
2022/02/23 10:56:20;;;;;;;9.00;2.20;;;13.60;40.20;;;;;;4950516;28;20055;-66
2022/02/23 10:58:46;;;;;;;9.77;2.63;;;13.70;40.60;;;;;;4950168;28;20089;-62
2022/02/23 11:01:13;;;;;;;9.48;2.60;;;13.90;40.50;;;;;;4948542;29;20023;-61
2022/02/23 11:03:39;;;;;;;10.32;2.25;;;14.00;39.80;;;;;;4952875;28;20031;-63
2022/02/23 11:06:04;;;;;;;14.00;2.42;;;13.90;39.20;;;;;;4950844;28;20499;-62
2022/02/23 11:08:30;;;;;;;6.95;2.95;;;13.70;39.30;;;;;;4951602;28;20039;-64
2022/02/23 11:10:58;;;;;;;12.73;3.20;;;13.70;39.70;;;;;;4951766;29;20494;-61
2022/02/23 11:13:23;;;;;;;10.68;2.90;;;13.70;39.10;;;;;;4950717;29;20492;-60
2022/02/23 11:15:52;;;;;;;15.23;3.30;;;13.70;39.60;;;;;;4951472;29;20118;-61
2022/02/23 11:18:21;;;;;;;14.25;3.40;;;13.60;39.80;;;;;;4951462;28;20118;-62
2022/02/23 11:20:49;;;;;;;8.05;2.83;;;13.70;39.80;;;;;;4951778;28;20114;-61
2022/02/23 11:23:18;;;;;;;10.35;2.28;;;13.90;40.00;;;;;;4950868;28;20023;-62
2022/02/23 11:25:48;;;;;;;11.93;2.47;;;13.70;39.10;;;;;;4951472;29;20034;-66
2022/02/23 11:28:23;;;;;;;8.73;2.15;;;13.60;39.70;;;;;;4951027;28;20039;-60
2022/02/23 11:31:14;;;;;;;6.28;1.70;;;13.50;39.90;;;;;;4950508;28;20109;-64
2022/02/23 11:33:58;;;;;;;10.93;2.42;;;13.40;39.80;;;;;;4951213;28;20042;-60
2022/02/23 11:36:31;;;;;;;10.77;2.20;;;13.40;39.60;;;;;;4951671;28;20031;-60
2022/02/23 11:39:13;;;;;;;7.70;2.33;;;13.40;40.30;;;;;;4951394;28;20042;-61
2022/02/23 11:41:46;;;;;;;8.65;2.72;;;13.30;40.40;;;;;;4952642;28;20314;-60
2022/02/23 11:44:17;;;;;;;9.85;2.75;;;13.30;39.80;;;;;;4950418;29;20031;-63
2022/02/23 11:46:52;;;;;;;8.60;2.85;;;13.20;40.90;;;;;;4951862;28;20134;-62
2022/02/23 11:49:32;;;;;;;30.15;11.45;;;13.30;40.30;;;;;;4952651;28;20055;-61
2022/02/23 11:52:07;;;;;;;8.82;2.53;;;13.40;40.00;;;;;;4952226;28;20038;-62
2022/02/23 11:55:08;;;;;;;18.88;6.32;;;13.50;39.40;;;;;;4951132;29;20038;-60
2022/02/23 11:57:50;;;;;;;14.50;3.05;;;13.50;39.20;;;;;;4952958;28;20027;-61
2022/02/23 12:00:25;;;;;;;6.28;2.22;;;13.50;39.30;;;;;;4951877;28;20145;-61
2022/02/23 12:03:04;;;;;;;10.27;2.35;;;13.60;39.10;;;;;;4953032;28;20035;-61
2022/02/23 12:05:47;;;;;;;12.20;2.90;;;13.70;39.20;;;;;;4951398;29;20498;-60
2022/02/23 12:08:32;;;;;;;16.88;3.88;;;13.70;38.40;;;;;;4951097;29;20094;-62
2022/02/23 12:11:15;;;;;;;14.45;3.55;;;13.70;38.30;;;;;;4952376;28;20028;-61
2022/02/23 12:13:44;;;;;;;11.85;3.88;;;14.10;39.10;;;;;;4951259;29;20035;-61
2022/02/23 12:16:26;;;;;;;12.07;3.35;;;14.80;37.50;;;;;;4950665;28;20454;-61
2022/02/23 12:19:02;;;;;;;9.68;2.55;;;15.60;35.30;;;;;;4950829;28;20074;-65
2022/02/23 12:21:41;;;;;;;22.92;3.25;;;15.70;35.00;;;;;;4949286;28;20031;-63
2022/02/23 12:24:10;;;;;;;10.05;3.42;;;15.30;35.00;;;;;;4951389;28;20027;-67
2022/02/23 12:26:37;;;;;;;11.40;3.72;;;15.20;35.80;;;;;;4950619;29;20031;-61
2022/02/23 12:29:07;;;;;;;8.20;2.90;;;15.10;36.20;;;;;;4952090;28;20056;-61
2022/02/23 12:31:33;;;;;;;11.68;2.50;;;15.10;36.30;;;;;;4973708;28;20046;-61
2022/02/23 12:34:05;;;;;;;17.75;3.45;;;15.10;35.10;;;;;;4991075;28;20019;-61
2022/02/23 12:36:37;;;;;;;9.35;2.90;;;15.00;34.90;;;;;;4972498;28;20057;-62
2022/02/23 12:39:07;;;;;;;9.52;2.75;;;14.90;35.50;;;;;;4973371;28;20049;-61
2022/02/23 12:41:34;;;;;;;5.10;1.73;;;14.90;35.60;;;;;;4973958;28;20465;-60
2022/02/23 12:44:00;;;;;;;6.50;2.35;;;14.80;35.10;;;;;;4973285;28;20026;-61
2022/02/23 12:46:28;;;;;;;13.63;2.63;;;14.80;35.60;;;;;;4991211;28;20080;-61
2022/02/23 12:48:56;;;;;;;6.07;1.75;;;14.90;35.50;;;;;;4990254;28;20045;-61
2022/02/23 12:51:22;;;;;;;5.60;1.95;;;14.80;34.70;;;;;;4972577;28;20031;-61
2022/02/23 12:53:52;;;;;;;22.33;5.00;;;14.80;34.70;;;;;;4990423;28;20026;-62